sensor_id;sensor_type;location;lat;lon;timestamp;P1;durP1;ratioP1;P2;durP2;ratioP2
4132;SDS011;2080;51.038;7.008;2024-03-22T00:01:52;49.63;;;19.20;;
4132;SDS011;2080;51.038;7.008;2024-03-22T00:04:18;59.63;;;22.05;;
4132;SDS011;2080;51.038;7.008;2024-03-22T00:06:45;58.92;;;22.00;;
4132;SDS011;2080;51.038;7.008;2024-03-22T00:09:11;57.42;;;21.00;;
4132;SDS011;2080;51.038;7.008;2024-03-22T00:11:38;74.80;;;20.93;;
4132;SDS011;2080;51.038;7.008;2024-03-22T00:14:05;58.63;;;20.60;;
4132;SDS011;2080;51.038;7.008;2024-03-22T00:16:33;67.72;;;22.30;;
4132;SDS011;2080;51.038;7.008;2024-03-22T00:18:59;56.78;;;20.67;;
4132;SDS011;2080;51.038;7.008;2024-03-22T00:21:27;54.60;;;21.23;;
4132;SDS011;2080;51.038;7.008;2024-03-22T00:23:55;57.05;;;19.40;;
4132;SDS011;2080;51.038;7.008;2024-03-22T00:26:21;51.92;;;20.58;;
4132;SDS011;2080;51.038;7.008;2024-03-22T00:28:46;55.10;;;21.73;;
4132;SDS011;2080;51.038;7.008;2024-03-22T00:31:12;60.93;;;20.80;;
4132;SDS011;2080;51.038;7.008;2024-03-22T00:33:43;55.17;;;21.23;;
4132;SDS011;2080;51.038;7.008;2024-03-22T00:36:08;48.20;;;20.40;;
4132;SDS011;2080;51.038;7.008;2024-03-22T00:38:34;53.72;;;19.80;;
4132;SDS011;2080;51.038;7.008;2024-03-22T00:41:02;54.10;;;19.73;;
4132;SDS011;2080;51.038;7.008;2024-03-22T00:43:30;55.83;;;20.67;;
4132;SDS011;2080;51.038;7.008;2024-03-22T00:46:00;62.45;;;20.52;;
4132;SDS011;2080;51.038;7.008;2024-03-22T00:48:27;50.00;;;19.02;;
4132;SDS011;2080;51.038;7.008;2024-03-22T00:50:53;50.80;;;18.30;;
4132;SDS011;2080;51.038;7.008;2024-03-22T00:53:18;52.88;;;18.90;;
4132;SDS011;2080;51.038;7.008;2024-03-22T00:55:43;50.43;;;18.97;;
4132;SDS011;2080;51.038;7.008;2024-03-22T00:58:15;56.72;;;21.20;;
4132;SDS011;2080;51.038;7.008;2024-03-22T01:00:44;50.40;;;19.60;;
4132;SDS011;2080;51.038;7.008;2024-03-22T01:03:10;55.45;;;19.52;;
4132;SDS011;2080;51.038;7.008;2024-03-22T01:05:35;52.60;;;20.48;;
4132;SDS011;2080;51.038;7.008;2024-03-22T01:08:01;61.83;;;20.97;;
4132;SDS011;2080;51.038;7.008;2024-03-22T01:10:27;55.88;;;18.77;;
4132;SDS011;2080;51.038;7.008;2024-03-22T01:12:52;49.37;;;18.00;;
4132;SDS011;2080;51.038;7.008;2024-03-22T01:15:18;53.50;;;19.60;;
4132;SDS011;2080;51.038;7.008;2024-03-22T01:17:45;51.57;;;19.90;;
4132;SDS011;2080;51.038;7.008;2024-03-22T01:20:11;46.60;;;20.60;;
4132;SDS011;2080;51.038;7.008;2024-03-22T01:22:36;51.33;;;19.70;;
4132;SDS011;2080;51.038;7.008;2024-03-22T01:25:02;50.78;;;19.23;;
4132;SDS011;2080;51.038;7.008;2024-03-22T01:27:27;52.67;;;19.03;;
4132;SDS011;2080;51.038;7.008;2024-03-22T01:29:55;47.78;;;17.35;;
4132;SDS011;2080;51.038;7.008;2024-03-22T01:32:20;50.70;;;19.70;;
4132;SDS011;2080;51.038;7.008;2024-03-22T01:34:47;52.53;;;19.70;;
4132;SDS011;2080;51.038;7.008;2024-03-22T01:37:12;47.85;;;19.10;;
4132;SDS011;2080;51.038;7.008;2024-03-22T01:39:37;52.00;;;17.50;;
4132;SDS011;2080;51.038;7.008;2024-03-22T01:42:03;49.50;;;18.07;;
4132;SDS011;2080;51.038;7.008;2024-03-22T01:44:28;49.75;;;19.40;;
4132;SDS011;2080;51.038;7.008;2024-03-22T01:46:57;47.03;;;18.40;;
4132;SDS011;2080;51.038;7.008;2024-03-22T01:49:27;50.55;;;17.45;;
4132;SDS011;2080;51.038;7.008;2024-03-22T01:51:53;51.13;;;18.83;;
4132;SDS011;2080;51.038;7.008;2024-03-22T01:54:21;47.30;;;17.70;;
4132;SDS011;2080;51.038;7.008;2024-03-22T01:56:47;49.63;;;19.60;;
4132;SDS011;2080;51.038;7.008;2024-03-22T01:59:14;57.83;;;20.23;;
4132;SDS011;2080;51.038;7.008;2024-03-22T02:01:40;48.70;;;18.67;;
4132;SDS011;2080;51.038;7.008;2024-03-22T02:04:09;48.43;;;17.87;;
4132;SDS011;2080;51.038;7.008;2024-03-22T02:06:34;44.20;;;16.95;;
4132;SDS011;2080;51.038;7.008;2024-03-22T02:09:00;39.80;;;16.70;;
4132;SDS011;2080;51.038;7.008;2024-03-22T02:11:29;46.58;;;15.90;;
4132;SDS011;2080;51.038;7.008;2024-03-22T02:13:55;47.92;;;17.00;;
4132;SDS011;2080;51.038;7.008;2024-03-22T02:16:20;52.27;;;17.80;;
4132;SDS011;2080;51.038;7.008;2024-03-22T02:18:46;50.05;;;18.70;;
4132;SDS011;2080;51.038;7.008;2024-03-22T02:21:11;52.03;;;18.10;;
4132;SDS011;2080;51.038;7.008;2024-03-22T02:23:37;47.90;;;17.50;;
4132;SDS011;2080;51.038;7.008;2024-03-22T02:26:04;52.77;;;17.27;;
4132;SDS011;2080;51.038;7.008;2024-03-22T02:28:30;45.88;;;16.75;;
4132;SDS011;2080;51.038;7.008;2024-03-22T02:31:00;45.28;;;18.40;;
4132;SDS011;2080;51.038;7.008;2024-03-22T02:33:28;48.33;;;18.42;;
4132;SDS011;2080;51.038;7.008;2024-03-22T02:35:58;55.73;;;17.70;;
4132;SDS011;2080;51.038;7.008;2024-03-22T02:38:23;47.30;;;17.08;;
4132;SDS011;2080;51.038;7.008;2024-03-22T02:40:50;46.60;;;17.17;;
4132;SDS011;2080;51.038;7.008;2024-03-22T02:43:17;51.50;;;16.98;;
4132;SDS011;2080;51.038;7.008;2024-03-22T02:45:43;50.35;;;17.40;;
4132;SDS011;2080;51.038;7.008;2024-03-22T02:48:11;45.58;;;16.83;;
4132;SDS011;2080;51.038;7.008;2024-03-22T02:50:39;42.50;;;16.93;;
4132;SDS011;2080;51.038;7.008;2024-03-22T02:53:05;48.40;;;16.20;;
4132;SDS011;2080;51.038;7.008;2024-03-22T02:55:36;40.88;;;16.58;;
4132;SDS011;2080;51.038;7.008;2024-03-22T02:58:02;43.80;;;16.73;;
4132;SDS011;2080;51.038;7.008;2024-03-22T03:00:28;40.45;;;16.15;;
4132;SDS011;2080;51.038;7.008;2024-03-22T03:02:53;44.27;;;16.13;;
4132;SDS011;2080;51.038;7.008;2024-03-22T03:05:18;44.43;;;16.70;;
4132;SDS011;2080;51.038;7.008;2024-03-22T03:07:44;44.20;;;16.00;;
4132;SDS011;2080;51.038;7.008;2024-03-22T03:10:09;43.77;;;15.70;;
4132;SDS011;2080;51.038;7.008;2024-03-22T03:12:36;51.33;;;16.45;;
4132;SDS011;2080;51.038;7.008;2024-03-22T03:15:02;45.38;;;16.40;;
4132;SDS011;2080;51.038;7.008;2024-03-22T03:17:30;44.72;;;16.77;;
4132;SDS011;2080;51.038;7.008;2024-03-22T03:19:55;41.60;;;15.40;;
4132;SDS011;2080;51.038;7.008;2024-03-22T03:22:21;54.57;;;16.70;;
4132;SDS011;2080;51.038;7.008;2024-03-22T03:24:48;51.20;;;15.88;;
4132;SDS011;2080;51.038;7.008;2024-03-22T03:27:14;45.87;;;16.50;;
4132;SDS011;2080;51.038;7.008;2024-03-22T03:29:42;48.22;;;14.93;;
4132;SDS011;2080;51.038;7.008;2024-03-22T03:32:07;42.60;;;14.90;;
4132;SDS011;2080;51.038;7.008;2024-03-22T03:34:37;43.50;;;14.48;;
4132;SDS011;2080;51.038;7.008;2024-03-22T03:37:06;42.50;;;15.05;;
4132;SDS011;2080;51.038;7.008;2024-03-22T03:39:31;47.87;;;15.73;;
4132;SDS011;2080;51.038;7.008;2024-03-22T03:41:57;54.10;;;15.67;;
4132;SDS011;2080;51.038;7.008;2024-03-22T03:44:26;44.70;;;15.20;;
4132;SDS011;2080;51.038;7.008;2024-03-22T03:46:52;45.00;;;15.80;;
4132;SDS011;2080;51.038;7.008;2024-03-22T03:49:17;48.10;;;15.73;;
4132;SDS011;2080;51.038;7.008;2024-03-22T03:51:43;47.15;;;15.80;;
4132;SDS011;2080;51.038;7.008;2024-03-22T03:54:10;45.90;;;15.18;;
4132;SDS011;2080;51.038;7.008;2024-03-22T03:56:35;44.30;;;15.10;;
4132;SDS011;2080;51.038;7.008;2024-03-22T03:59:01;47.07;;;15.33;;
4132;SDS011;2080;51.038;7.008;2024-03-22T04:01:26;56.90;;;16.50;;
4132;SDS011;2080;51.038;7.008;2024-03-22T04:03:54;46.40;;;15.50;;
4132;SDS011;2080;51.038;7.008;2024-03-22T04:06:19;47.03;;;15.75;;
4132;SDS011;2080;51.038;7.008;2024-03-22T04:08:44;49.87;;;16.30;;
4132;SDS011;2080;51.038;7.008;2024-03-22T04:11:10;46.67;;;15.73;;
4132;SDS011;2080;51.038;7.008;2024-03-22T04:13:36;51.60;;;14.57;;
4132;SDS011;2080;51.038;7.008;2024-03-22T04:16:04;45.97;;;14.83;;
4132;SDS011;2080;51.038;7.008;2024-03-22T04:18:30;55.90;;;15.93;;
4132;SDS011;2080;51.038;7.008;2024-03-22T04:20:59;41.20;;;14.55;;
4132;SDS011;2080;51.038;7.008;2024-03-22T04:23:25;54.30;;;15.15;;
4132;SDS011;2080;51.038;7.008;2024-03-22T04:25:56;51.47;;;15.52;;
4132;SDS011;2080;51.038;7.008;2024-03-22T04:28:22;50.58;;;15.65;;
4132;SDS011;2080;51.038;7.008;2024-03-22T04:31:00;47.05;;;15.50;;
4132;SDS011;2080;51.038;7.008;2024-03-22T04:33:27;45.80;;;13.77;;
4132;SDS011;2080;51.038;7.008;2024-03-22T04:35:56;45.67;;;15.40;;
4132;SDS011;2080;51.038;7.008;2024-03-22T04:38:22;52.08;;;14.50;;
4132;SDS011;2080;51.038;7.008;2024-03-22T04:40:52;43.08;;;14.60;;
4132;SDS011;2080;51.038;7.008;2024-03-22T04:43:19;48.35;;;15.15;;
4132;SDS011;2080;51.038;7.008;2024-03-22T04:45:47;50.17;;;15.30;;
4132;SDS011;2080;51.038;7.008;2024-03-22T04:48:19;45.13;;;14.63;;
4132;SDS011;2080;51.038;7.008;2024-03-22T04:50:46;49.13;;;13.73;;
4132;SDS011;2080;51.038;7.008;2024-03-22T04:53:13;52.30;;;15.77;;
4132;SDS011;2080;51.038;7.008;2024-03-22T04:55:38;46.42;;;14.50;;
4132;SDS011;2080;51.038;7.008;2024-03-22T04:58:11;45.70;;;15.38;;
4132;SDS011;2080;51.038;7.008;2024-03-22T05:00:40;41.40;;;14.65;;
4132;SDS011;2080;51.038;7.008;2024-03-22T05:03:09;54.97;;;14.43;;
4132;SDS011;2080;51.038;7.008;2024-03-22T05:05:37;47.88;;;13.35;;
4132;SDS011;2080;51.038;7.008;2024-03-22T05:08:03;52.90;;;15.85;;
4132;SDS011;2080;51.038;7.008;2024-03-22T05:10:29;55.72;;;18.80;;
4132;SDS011;2080;51.038;7.008;2024-03-22T05:12:58;54.75;;;19.95;;
4132;SDS011;2080;51.038;7.008;2024-03-22T05:15:23;58.97;;;21.77;;
4132;SDS011;2080;51.038;7.008;2024-03-22T05:17:52;49.08;;;17.63;;
4132;SDS011;2080;51.038;7.008;2024-03-22T05:20:18;50.72;;;17.02;;
4132;SDS011;2080;51.038;7.008;2024-03-22T05:22:44;41.03;;;14.35;;
4132;SDS011;2080;51.038;7.008;2024-03-22T05:25:10;43.10;;;14.52;;
4132;SDS011;2080;51.038;7.008;2024-03-22T05:27:36;45.50;;;12.88;;
4132;SDS011;2080;51.038;7.008;2024-03-22T05:30:01;47.03;;;14.40;;
4132;SDS011;2080;51.038;7.008;2024-03-22T05:32:29;42.55;;;13.50;;
4132;SDS011;2080;51.038;7.008;2024-03-22T05:34:54;42.20;;;12.97;;
4132;SDS011;2080;51.038;7.008;2024-03-22T05:37:20;40.20;;;12.98;;
4132;SDS011;2080;51.038;7.008;2024-03-22T05:39:48;36.75;;;13.25;;
4132;SDS011;2080;51.038;7.008;2024-03-22T05:42:13;43.92;;;13.95;;
4132;SDS011;2080;51.038;7.008;2024-03-22T05:44:39;40.78;;;12.32;;
4132;SDS011;2080;51.038;7.008;2024-03-22T05:47:10;39.60;;;13.25;;
4132;SDS011;2080;51.038;7.008;2024-03-22T05:49:35;45.63;;;16.10;;
4132;SDS011;2080;51.038;7.008;2024-03-22T05:52:03;47.15;;;14.98;;
4132;SDS011;2080;51.038;7.008;2024-03-22T05:54:35;44.35;;;13.55;;
4132;SDS011;2080;51.038;7.008;2024-03-22T05:57:01;45.63;;;13.50;;
4132;SDS011;2080;51.038;7.008;2024-03-22T05:59:27;41.80;;;13.10;;
4132;SDS011;2080;51.038;7.008;2024-03-22T06:01:55;38.37;;;12.73;;
4132;SDS011;2080;51.038;7.008;2024-03-22T06:04:20;43.10;;;14.80;;
4132;SDS011;2080;51.038;7.008;2024-03-22T06:06:46;43.60;;;14.30;;
4132;SDS011;2080;51.038;7.008;2024-03-22T06:09:14;43.78;;;13.40;;
4132;SDS011;2080;51.038;7.008;2024-03-22T06:11:48;56.65;;;15.27;;
4132;SDS011;2080;51.038;7.008;2024-03-22T06:14:16;46.72;;;13.13;;
4132;SDS011;2080;51.038;7.008;2024-03-22T06:16:42;44.80;;;13.13;;
4132;SDS011;2080;51.038;7.008;2024-03-22T06:19:07;35.47;;;12.00;;
4132;SDS011;2080;51.038;7.008;2024-03-22T06:21:33;38.28;;;12.43;;
4132;SDS011;2080;51.038;7.008;2024-03-22T06:24:01;35.70;;;13.18;;
4132;SDS011;2080;51.038;7.008;2024-03-22T06:26:31;38.58;;;12.77;;
4132;SDS011;2080;51.038;7.008;2024-03-22T06:28:56;42.90;;;13.25;;
4132;SDS011;2080;51.038;7.008;2024-03-22T06:31:24;33.07;;;12.27;;
4132;SDS011;2080;51.038;7.008;2024-03-22T06:33:50;35.83;;;12.88;;
4132;SDS011;2080;51.038;7.008;2024-03-22T06:36:15;34.88;;;12.15;;
4132;SDS011;2080;51.038;7.008;2024-03-22T06:38:41;36.27;;;11.53;;
4132;SDS011;2080;51.038;7.008;2024-03-22T06:41:06;34.80;;;13.37;;
4132;SDS011;2080;51.038;7.008;2024-03-22T06:43:31;47.13;;;13.68;;
4132;SDS011;2080;51.038;7.008;2024-03-22T06:45:57;36.23;;;13.73;;
4132;SDS011;2080;51.038;7.008;2024-03-22T06:48:24;36.07;;;12.57;;
4132;SDS011;2080;51.038;7.008;2024-03-22T06:50:50;40.13;;;12.90;;
4132;SDS011;2080;51.038;7.008;2024-03-22T06:53:15;33.80;;;12.73;;
4132;SDS011;2080;51.038;7.008;2024-03-22T06:55:40;37.50;;;12.55;;
4132;SDS011;2080;51.038;7.008;2024-03-22T06:58:06;34.40;;;12.70;;
4132;SDS011;2080;51.038;7.008;2024-03-22T07:00:31;34.63;;;12.63;;
4132;SDS011;2080;51.038;7.008;2024-03-22T07:02:59;40.00;;;11.80;;
4132;SDS011;2080;51.038;7.008;2024-03-22T07:05:27;41.17;;;12.95;;
4132;SDS011;2080;51.038;7.008;2024-03-22T07:07:53;39.25;;;12.30;;
4132;SDS011;2080;51.038;7.008;2024-03-22T07:10:24;39.13;;;12.60;;
4132;SDS011;2080;51.038;7.008;2024-03-22T07:12:53;42.10;;;12.82;;
4132;SDS011;2080;51.038;7.008;2024-03-22T07:15:22;31.50;;;10.40;;
4132;SDS011;2080;51.038;7.008;2024-03-22T07:17:48;37.38;;;12.98;;
4132;SDS011;2080;51.038;7.008;2024-03-22T07:20:17;36.15;;;12.85;;
4132;SDS011;2080;51.038;7.008;2024-03-22T07:22:43;31.38;;;11.52;;
4132;SDS011;2080;51.038;7.008;2024-03-22T07:25:11;35.47;;;11.47;;
4132;SDS011;2080;51.038;7.008;2024-03-22T07:27:36;35.70;;;10.70;;
4132;SDS011;2080;51.038;7.008;2024-03-22T07:30:02;32.88;;;11.55;;
4132;SDS011;2080;51.038;7.008;2024-03-22T07:32:30;31.52;;;11.60;;
4132;SDS011;2080;51.038;7.008;2024-03-22T07:34:56;39.00;;;12.90;;
4132;SDS011;2080;51.038;7.008;2024-03-22T07:37:22;35.70;;;11.43;;
4132;SDS011;2080;51.038;7.008;2024-03-22T07:39:47;29.40;;;11.50;;
4132;SDS011;2080;51.038;7.008;2024-03-22T07:42:13;32.57;;;11.60;;
4132;SDS011;2080;51.038;7.008;2024-03-22T07:44:43;28.85;;;11.38;;
4132;SDS011;2080;51.038;7.008;2024-03-22T07:47:08;32.03;;;12.75;;
4132;SDS011;2080;51.038;7.008;2024-03-22T07:49:34;35.67;;;12.70;;
4132;SDS011;2080;51.038;7.008;2024-03-22T07:52:02;35.97;;;11.70;;
4132;SDS011;2080;51.038;7.008;2024-03-22T07:54:29;36.90;;;12.90;;
4132;SDS011;2080;51.038;7.008;2024-03-22T07:56:54;36.53;;;13.53;;
4132;SDS011;2080;51.038;7.008;2024-03-22T07:59:19;47.70;;;13.67;;
4132;SDS011;2080;51.038;7.008;2024-03-22T08:01:45;31.43;;;12.40;;
4132;SDS011;2080;51.038;7.008;2024-03-22T08:04:13;33.50;;;13.15;;
4132;SDS011;2080;51.038;7.008;2024-03-22T08:06:38;30.87;;;12.50;;
4132;SDS011;2080;51.038;7.008;2024-03-22T08:09:06;42.47;;;11.90;;
4132;SDS011;2080;51.038;7.008;2024-03-22T08:11:34;37.92;;;12.70;;
4132;SDS011;2080;51.038;7.008;2024-03-22T08:13:59;39.40;;;13.57;;
4132;SDS011;2080;51.038;7.008;2024-03-22T08:16:31;34.83;;;13.40;;
4132;SDS011;2080;51.038;7.008;2024-03-22T08:18:56;38.80;;;13.53;;
4132;SDS011;2080;51.038;7.008;2024-03-22T08:21:22;37.25;;;14.05;;
4132;SDS011;2080;51.038;7.008;2024-03-22T08:23:49;35.25;;;13.98;;
4132;SDS011;2080;51.038;7.008;2024-03-22T08:26:14;35.20;;;14.40;;
4132;SDS011;2080;51.038;7.008;2024-03-22T08:28:40;35.77;;;13.57;;
4132;SDS011;2080;51.038;7.008;2024-03-22T08:31:08;39.40;;;13.57;;
4132;SDS011;2080;51.038;7.008;2024-03-22T08:33:33;39.07;;;14.87;;
4132;SDS011;2080;51.038;7.008;2024-03-22T08:36:01;42.83;;;14.15;;
4132;SDS011;2080;51.038;7.008;2024-03-22T08:38:29;35.30;;;12.50;;
4132;SDS011;2080;51.038;7.008;2024-03-22T08:40:57;36.03;;;11.90;;
4132;SDS011;2080;51.038;7.008;2024-03-22T08:43:22;41.20;;;13.80;;
4132;SDS011;2080;51.038;7.008;2024-03-22T08:45:50;34.45;;;11.88;;
4132;SDS011;2080;51.038;7.008;2024-03-22T08:48:16;33.88;;;10.02;;
4132;SDS011;2080;51.038;7.008;2024-03-22T08:50:42;33.38;;;11.13;;
4132;SDS011;2080;51.038;7.008;2024-03-22T08:53:11;26.20;;;9.60;;
4132;SDS011;2080;51.038;7.008;2024-03-22T08:55:38;26.40;;;9.60;;
4132;SDS011;2080;51.038;7.008;2024-03-22T08:58:10;31.75;;;8.73;;
4132;SDS011;2080;51.038;7.008;2024-03-22T09:00:35;23.30;;;8.67;;
4132;SDS011;2080;51.038;7.008;2024-03-22T09:03:02;26.20;;;8.93;;
4132;SDS011;2080;51.038;7.008;2024-03-22T09:05:28;31.55;;;10.00;;
4132;SDS011;2080;51.038;7.008;2024-03-22T09:07:53;25.83;;;8.73;;
4132;SDS011;2080;51.038;7.008;2024-03-22T09:10:20;30.23;;;8.10;;
4132;SDS011;2080;51.038;7.008;2024-03-22T09:12:46;26.63;;;8.00;;
4132;SDS011;2080;51.038;7.008;2024-03-22T09:15:13;23.03;;;8.13;;
4132;SDS011;2080;51.038;7.008;2024-03-22T09:17:39;23.23;;;7.15;;
4132;SDS011;2080;51.038;7.008;2024-03-22T09:20:04;23.03;;;7.23;;
4132;SDS011;2080;51.038;7.008;2024-03-22T09:22:32;23.47;;;7.30;;
4132;SDS011;2080;51.038;7.008;2024-03-22T09:24:58;22.90;;;7.90;;
4132;SDS011;2080;51.038;7.008;2024-03-22T09:27:26;24.27;;;8.48;;
4132;SDS011;2080;51.038;7.008;2024-03-22T09:29:55;27.10;;;8.60;;
4132;SDS011;2080;51.038;7.008;2024-03-22T09:32:20;21.10;;;7.30;;
4132;SDS011;2080;51.038;7.008;2024-03-22T09:34:48;23.57;;;8.03;;
4132;SDS011;2080;51.038;7.008;2024-03-22T09:37:14;25.42;;;9.23;;
4132;SDS011;2080;51.038;7.008;2024-03-22T09:39:41;25.23;;;8.47;;
4132;SDS011;2080;51.038;7.008;2024-03-22T09:42:07;24.00;;;7.15;;
4132;SDS011;2080;51.038;7.008;2024-03-22T09:44:34;22.90;;;7.57;;
4132;SDS011;2080;51.038;7.008;2024-03-22T09:47:01;28.13;;;7.68;;
4132;SDS011;2080;51.038;7.008;2024-03-22T09:49:29;27.13;;;7.90;;
4132;SDS011;2080;51.038;7.008;2024-03-22T09:51:56;20.55;;;7.80;;
4132;SDS011;2080;51.038;7.008;2024-03-22T09:54:23;21.38;;;6.70;;
4132;SDS011;2080;51.038;7.008;2024-03-22T09:56:50;21.83;;;6.70;;
4132;SDS011;2080;51.038;7.008;2024-03-22T09:59:16;24.90;;;7.30;;
4132;SDS011;2080;51.038;7.008;2024-03-22T10:01:44;23.23;;;6.30;;
4132;SDS011;2080;51.038;7.008;2024-03-22T10:04:11;19.42;;;6.18;;
4132;SDS011;2080;51.038;7.008;2024-03-22T10:06:36;26.20;;;7.03;;
4132;SDS011;2080;51.038;7.008;2024-03-22T10:09:02;23.63;;;7.20;;
4132;SDS011;2080;51.038;7.008;2024-03-22T10:11:29;23.63;;;6.50;;
4132;SDS011;2080;51.038;7.008;2024-03-22T10:13:57;24.17;;;6.47;;
4132;SDS011;2080;51.038;7.008;2024-03-22T10:16:25;21.67;;;6.75;;
4132;SDS011;2080;51.038;7.008;2024-03-22T10:18:52;27.83;;;7.40;;
4132;SDS011;2080;51.038;7.008;2024-03-22T10:21:18;34.25;;;8.68;;
4132;SDS011;2080;51.038;7.008;2024-03-22T10:23:44;25.17;;;7.47;;
4132;SDS011;2080;51.038;7.008;2024-03-22T10:26:11;23.00;;;7.60;;
4132;SDS011;2080;51.038;7.008;2024-03-22T10:28:37;27.33;;;6.60;;
4132;SDS011;2080;51.038;7.008;2024-03-22T10:31:10;22.00;;;6.72;;
4132;SDS011;2080;51.038;7.008;2024-03-22T10:33:37;26.00;;;8.02;;
4132;SDS011;2080;51.038;7.008;2024-03-22T10:36:03;27.27;;;9.15;;
4132;SDS011;2080;51.038;7.008;2024-03-22T10:38:29;26.83;;;7.13;;
4132;SDS011;2080;51.038;7.008;2024-03-22T10:40:57;25.40;;;8.60;;
4132;SDS011;2080;51.038;7.008;2024-03-22T10:43:27;35.13;;;8.82;;
4132;SDS011;2080;51.038;7.008;2024-03-22T10:45:53;27.60;;;8.37;;
4132;SDS011;2080;51.038;7.008;2024-03-22T10:48:25;27.97;;;7.93;;
4132;SDS011;2080;51.038;7.008;2024-03-22T10:50:55;25.90;;;7.75;;
4132;SDS011;2080;51.038;7.008;2024-03-22T10:53:26;26.77;;;8.63;;
4132;SDS011;2080;51.038;7.008;2024-03-22T10:55:56;34.28;;;9.75;;
4132;SDS011;2080;51.038;7.008;2024-03-22T10:58:25;24.95;;;8.43;;
4132;SDS011;2080;51.038;7.008;2024-03-22T11:00:56;25.90;;;8.60;;
4132;SDS011;2080;51.038;7.008;2024-03-22T11:03:23;25.13;;;9.15;;
4132;SDS011;2080;51.038;7.008;2024-03-22T11:05:55;26.88;;;8.48;;
4132;SDS011;2080;51.038;7.008;2024-03-22T11:08:24;27.67;;;8.65;;
4132;SDS011;2080;51.038;7.008;2024-03-22T11:10:51;29.63;;;8.85;;
4132;SDS011;2080;51.038;7.008;2024-03-22T11:13:17;30.00;;;9.95;;
4132;SDS011;2080;51.038;7.008;2024-03-22T11:15:43;30.33;;;10.05;;
4132;SDS011;2080;51.038;7.008;2024-03-22T11:18:08;28.97;;;9.40;;
4132;SDS011;2080;51.038;7.008;2024-03-22T11:20:37;32.03;;;9.80;;
4132;SDS011;2080;51.038;7.008;2024-03-22T11:23:03;26.87;;;9.10;;
4132;SDS011;2080;51.038;7.008;2024-03-22T11:25:31;31.97;;;10.20;;
4132;SDS011;2080;51.038;7.008;2024-03-22T11:27:57;29.15;;;10.75;;
4132;SDS011;2080;51.038;7.008;2024-03-22T11:30:26;25.30;;;9.73;;
4132;SDS011;2080;51.038;7.008;2024-03-22T11:32:53;25.17;;;9.90;;
4132;SDS011;2080;51.038;7.008;2024-03-22T11:35:23;29.70;;;9.30;;
4132;SDS011;2080;51.038;7.008;2024-03-22T11:37:49;27.07;;;10.27;;
4132;SDS011;2080;51.038;7.008;2024-03-22T11:40:17;27.10;;;9.83;;
4132;SDS011;2080;51.038;7.008;2024-03-22T11:42:45;28.90;;;9.83;;
4132;SDS011;2080;51.038;7.008;2024-03-22T11:45:13;35.67;;;10.82;;
4132;SDS011;2080;51.038;7.008;2024-03-22T11:47:41;23.48;;;9.68;;
4132;SDS011;2080;51.038;7.008;2024-03-22T11:50:09;32.45;;;10.95;;
4132;SDS011;2080;51.038;7.008;2024-03-22T11:52:38;31.77;;;10.82;;
4132;SDS011;2080;51.038;7.008;2024-03-22T11:55:06;37.35;;;11.98;;
4132;SDS011;2080;51.038;7.008;2024-03-22T11:57:31;29.73;;;12.10;;
4132;SDS011;2080;51.038;7.008;2024-03-22T12:00:00;32.07;;;11.63;;
4132;SDS011;2080;51.038;7.008;2024-03-22T12:02:28;34.60;;;12.00;;
4132;SDS011;2080;51.038;7.008;2024-03-22T12:04:56;30.27;;;10.63;;
4132;SDS011;2080;51.038;7.008;2024-03-22T12:07:25;30.02;;;10.43;;
4132;SDS011;2080;51.038;7.008;2024-03-22T12:09:51;36.43;;;9.40;;
4132;SDS011;2080;51.038;7.008;2024-03-22T12:12:17;29.30;;;9.40;;
4132;SDS011;2080;51.038;7.008;2024-03-22T12:14:42;33.80;;;10.30;;
4132;SDS011;2080;51.038;7.008;2024-03-22T12:17:11;32.67;;;11.00;;
4132;SDS011;2080;51.038;7.008;2024-03-22T12:19:36;28.00;;;10.10;;
4132;SDS011;2080;51.038;7.008;2024-03-22T12:22:04;33.03;;;11.45;;
4132;SDS011;2080;51.038;7.008;2024-03-22T12:24:31;31.20;;;9.45;;
4132;SDS011;2080;51.038;7.008;2024-03-22T12:26:57;31.45;;;10.10;;
4132;SDS011;2080;51.038;7.008;2024-03-22T12:29:22;31.77;;;10.55;;
4132;SDS011;2080;51.038;7.008;2024-03-22T12:31:48;29.60;;;10.40;;
4132;SDS011;2080;51.038;7.008;2024-03-22T12:34:16;35.00;;;10.80;;
4132;SDS011;2080;51.038;7.008;2024-03-22T12:36:45;36.13;;;11.25;;
4132;SDS011;2080;51.038;7.008;2024-03-22T12:39:12;46.37;;;11.40;;
4132;SDS011;2080;51.038;7.008;2024-03-22T12:41:38;33.27;;;11.83;;
4132;SDS011;2080;51.038;7.008;2024-03-22T12:44:04;37.47;;;12.30;;
4132;SDS011;2080;51.038;7.008;2024-03-22T12:46:29;30.13;;;11.67;;
4132;SDS011;2080;51.038;7.008;2024-03-22T12:48:54;29.67;;;11.00;;
4132;SDS011;2080;51.038;7.008;2024-03-22T12:51:22;39.63;;;12.40;;
4132;SDS011;2080;51.038;7.008;2024-03-22T12:53:49;33.28;;;11.63;;
4132;SDS011;2080;51.038;7.008;2024-03-22T12:56:14;32.97;;;11.30;;
4132;SDS011;2080;51.038;7.008;2024-03-22T12:58:42;36.95;;;12.02;;
4132;SDS011;2080;51.038;7.008;2024-03-22T13:01:10;39.78;;;12.05;;
4132;SDS011;2080;51.038;7.008;2024-03-22T13:03:38;34.17;;;10.60;;
4132;SDS011;2080;51.038;7.008;2024-03-22T13:06:03;29.17;;;10.57;;
4132;SDS011;2080;51.038;7.008;2024-03-22T13:08:32;29.27;;;11.00;;
4132;SDS011;2080;51.038;7.008;2024-03-22T13:10:57;27.93;;;11.13;;
4132;SDS011;2080;51.038;7.008;2024-03-22T13:13:22;30.43;;;12.00;;
4132;SDS011;2080;51.038;7.008;2024-03-22T13:15:50;28.25;;;11.75;;
4132;SDS011;2080;51.038;7.008;2024-03-22T13:18:16;33.97;;;11.60;;
4132;SDS011;2080;51.038;7.008;2024-03-22T13:20:46;32.30;;;10.82;;
4132;SDS011;2080;51.038;7.008;2024-03-22T13:23:12;29.52;;;11.13;;
4132;SDS011;2080;51.038;7.008;2024-03-22T13:25:38;29.57;;;11.63;;
4132;SDS011;2080;51.038;7.008;2024-03-22T13:28:06;33.67;;;10.93;;
4132;SDS011;2080;51.038;7.008;2024-03-22T13:30:31;34.73;;;10.97;;
4132;SDS011;2080;51.038;7.008;2024-03-22T13:32:59;28.15;;;10.48;;
4132;SDS011;2080;51.038;7.008;2024-03-22T13:35:25;28.00;;;11.43;;
4132;SDS011;2080;51.038;7.008;2024-03-22T13:37:55;36.75;;;11.90;;
4132;SDS011;2080;51.038;7.008;2024-03-22T13:40:21;27.45;;;11.20;;
4132;SDS011;2080;51.038;7.008;2024-03-22T13:42:52;29.15;;;12.18;;
4132;SDS011;2080;51.038;7.008;2024-03-22T13:45:18;30.13;;;11.68;;
4132;SDS011;2080;51.038;7.008;2024-03-22T13:47:43;29.53;;;11.37;;
4132;SDS011;2080;51.038;7.008;2024-03-22T13:50:09;31.67;;;11.47;;
4132;SDS011;2080;51.038;7.008;2024-03-22T13:52:36;39.47;;;12.37;;
4132;SDS011;2080;51.038;7.008;2024-03-22T13:55:02;36.20;;;12.60;;
4132;SDS011;2080;51.038;7.008;2024-03-22T13:57:30;34.05;;;12.00;;
4132;SDS011;2080;51.038;7.008;2024-03-22T13:59:58;35.73;;;12.53;;
4132;SDS011;2080;51.038;7.008;2024-03-22T14:02:24;34.97;;;12.07;;
4132;SDS011;2080;51.038;7.008;2024-03-22T14:04:52;37.53;;;14.47;;
4132;SDS011;2080;51.038;7.008;2024-03-22T14:07:17;31.70;;;13.07;;
4132;SDS011;2080;51.038;7.008;2024-03-22T14:09:42;36.33;;;13.47;;
4132;SDS011;2080;51.038;7.008;2024-03-22T14:12:08;33.40;;;12.97;;
4132;SDS011;2080;51.038;7.008;2024-03-22T14:14:33;35.92;;;13.43;;
4132;SDS011;2080;51.038;7.008;2024-03-22T14:17:01;38.40;;;13.70;;
4132;SDS011;2080;51.038;7.008;2024-03-22T14:19:26;36.10;;;13.50;;
4132;SDS011;2080;51.038;7.008;2024-03-22T14:21:56;40.05;;;12.45;;
4132;SDS011;2080;51.038;7.008;2024-03-22T14:24:22;28.83;;;12.00;;
4132;SDS011;2080;51.038;7.008;2024-03-22T14:26:47;28.07;;;11.57;;
4132;SDS011;2080;51.038;7.008;2024-03-22T14:29:12;35.70;;;11.70;;
4132;SDS011;2080;51.038;7.008;2024-03-22T14:31:40;35.45;;;11.15;;
4132;SDS011;2080;51.038;7.008;2024-03-22T14:34:07;34.55;;;11.07;;
4132;SDS011;2080;51.038;7.008;2024-03-22T14:36:33;27.73;;;10.70;;
4132;SDS011;2080;51.038;7.008;2024-03-22T14:39:00;32.60;;;10.98;;
4132;SDS011;2080;51.038;7.008;2024-03-22T14:41:30;36.65;;;11.55;;
4132;SDS011;2080;51.038;7.008;2024-03-22T14:44:00;26.70;;;9.63;;
4132;SDS011;2080;51.038;7.008;2024-03-22T14:46:26;35.25;;;12.00;;
4132;SDS011;2080;51.038;7.008;2024-03-22T14:48:53;34.67;;;11.20;;